createdAt,value
2022-10-28T00:01:47.184Z,2.84
2022-10-28T00:04:14.562Z,2.84
2022-10-28T00:06:43.268Z,2.84
2022-10-28T00:09:12.261Z,2.83
2022-10-28T00:11:39.783Z,2.82
2022-10-28T00:14:07.923Z,2.85
2022-10-28T00:16:37.292Z,2.85
2022-10-28T00:19:06.489Z,2.85
2022-10-28T00:21:36.485Z,2.86
2022-10-28T00:24:06.788Z,2.83
2022-10-28T00:26:36.600Z,2.79
2022-10-28T00:29:06.329Z,2.77
2022-10-28T00:31:34.948Z,2.72
2022-10-28T00:34:05.009Z,2.68
2022-10-28T00:36:34.513Z,2.74
2022-10-28T00:39:04.849Z,2.77
2022-10-28T00:41:35.093Z,2.75
2022-10-28T00:44:18.967Z,2.82
2022-10-28T00:46:49.341Z,2.83
2022-10-28T00:49:21.347Z,2.82
2022-10-28T00:51:53.507Z,2.77
2022-10-28T00:54:23.997Z,2.76
2022-10-28T00:56:53.710Z,2.77
2022-10-28T00:59:27.321Z,2.73
2022-10-28T01:01:55.056Z,2.75
2022-10-28T01:04:23.137Z,2.75
2022-10-28T01:06:50.809Z,2.79
2022-10-28T01:09:18.170Z,2.86
2022-10-28T01:12:09.457Z,2.95
2022-10-28T01:14:51.460Z,2.93
2022-10-28T01:17:36.580Z,2.82
2022-10-28T01:20:48.324Z,2.86
2022-10-28T01:23:22.034Z,2.86
2022-10-28T01:26:23.943Z,2.87
2022-10-28T01:29:11.994Z,2.83
2022-10-28T01:31:46.342Z,2.86
2022-10-28T01:34:22.173Z,2.90
2022-10-28T01:36:58.009Z,2.93
2022-10-28T01:39:32.831Z,2.89
2022-10-28T01:42:08.726Z,2.83
2022-10-28T01:44:43.692Z,2.83
2022-10-28T01:47:16.339Z,2.81
2022-10-28T01:49:52.440Z,2.83
2022-10-28T01:52:23.653Z,2.81
2022-10-28T01:55:02.386Z,2.86
2022-10-28T01:57:31.849Z,2.92
2022-10-28T02:00:00.907Z,2.92
2022-10-28T02:02:33.249Z,2.98
2022-10-28T02:05:22.687Z,3.02
2022-10-28T02:07:54.355Z,2.96
2022-10-28T02:10:33.079Z,2.95
2022-10-28T02:13:07.861Z,2.95
2022-10-28T02:15:46.916Z,2.98
2022-10-28T02:18:27.312Z,2.99
2022-10-28T02:21:00.497Z,2.92
2022-10-28T02:23:38.811Z,2.88
2022-10-28T02:26:13.068Z,2.93
2022-10-28T02:28:47.999Z,2.96
2022-10-28T02:31:22.845Z,2.94
2022-10-28T02:33:55.788Z,2.98
2022-10-28T02:36:24.811Z,2.96
2022-10-28T02:38:55.148Z,2.98
2022-10-28T02:41:27.149Z,2.98
2022-10-28T02:43:59.496Z,3.01
2022-10-28T02:46:29.825Z,3.01
2022-10-28T02:49:03.149Z,3.03
2022-10-28T02:51:35.478Z,3.08
2022-10-28T02:54:09.217Z,3.13
2022-10-28T02:56:40.781Z,3.16
2022-10-28T02:59:11.326Z,3.12
2022-10-28T03:01:39.295Z,3.14
2022-10-28T03:04:08.412Z,3.11
2022-10-28T03:06:35.820Z,3.14
2022-10-28T03:09:03.568Z,3.11
2022-10-28T03:11:30.911Z,3.16
2022-10-28T03:13:58.114Z,3.18
2022-10-28T03:16:28.243Z,3.19
2022-10-28T03:18:55.944Z,3.19
2022-10-28T03:21:24.618Z,3.21
2022-10-28T03:23:51.944Z,3.22
2022-10-28T03:26:19.368Z,3.20
2022-10-28T03:28:47.062Z,3.19
2022-10-28T03:31:15.342Z,3.22
2022-10-28T03:33:42.660Z,3.23
2022-10-28T03:36:10.035Z,3.21
2022-10-28T03:38:38.623Z,3.17
2022-10-28T03:41:06.182Z,3.20
2022-10-28T03:43:33.403Z,3.16
2022-10-28T03:46:00.643Z,3.13
2022-10-28T03:48:27.987Z,3.11
2022-10-28T03:50:55.386Z,3.07
2022-10-28T03:53:25.251Z,3.01
2022-10-28T03:55:59.347Z,2.98
2022-10-28T03:58:27.627Z,2.95
2022-10-28T04:00:55.930Z,2.93
2022-10-28T04:03:24.707Z,2.95
2022-10-28T04:05:52.059Z,2.99
2022-10-28T04:08:20.462Z,3.08
2022-10-28T04:10:47.882Z,3.06
2022-10-28T04:13:17.450Z,3.06
2022-10-28T04:15:44.742Z,3.09
2022-10-28T04:18:12.411Z,3.11
2022-10-28T04:20:40.189Z,3.12
2022-10-28T04:23:08.583Z,3.08
2022-10-28T04:25:35.815Z,3.07
2022-10-28T04:28:03.382Z,3.14
2022-10-28T04:30:32.251Z,3.14
2022-10-28T04:32:59.547Z,3.20
2022-10-28T04:35:27.002Z,3.28
2022-10-28T04:37:54.369Z,3.30
2022-10-28T04:40:21.756Z,3.32
2022-10-28T04:42:48.906Z,3.31
2022-10-28T04:45:16.454Z,3.27
2022-10-28T04:47:45.107Z,3.33
2022-10-28T04:50:12.320Z,3.34
2022-10-28T04:52:39.468Z,3.36
2022-10-28T04:55:07.245Z,3.40
2022-10-28T04:57:34.517Z,3.41
2022-10-28T05:00:01.721Z,3.42
2022-10-28T05:02:31.998Z,3.47
2022-10-28T05:05:03.680Z,3.50
2022-10-28T05:07:31.566Z,3.56
2022-10-28T05:09:58.949Z,3.55
2022-10-28T05:12:26.116Z,3.61
2022-10-28T05:14:53.380Z,3.66
2022-10-28T05:17:20.718Z,3.62
2022-10-28T05:19:48.088Z,3.62
2022-10-28T05:22:16.900Z,3.62
2022-10-28T05:24:44.116Z,3.63
2022-10-28T05:27:12.928Z,3.66
2022-10-28T05:29:40.050Z,3.74
2022-10-28T05:32:07.387Z,3.73
2022-10-28T05:34:34.995Z,3.74
2022-10-28T05:37:02.341Z,3.77
2022-10-28T05:39:31.045Z,3.82
2022-10-28T05:41:58.429Z,3.81
2022-10-28T05:44:25.801Z,3.94
2022-10-28T05:46:54.271Z,3.95
2022-10-28T05:49:21.643Z,3.97
2022-10-28T05:51:49.036Z,3.95
2022-10-28T05:54:16.512Z,3.84
2022-10-28T05:56:45.119Z,3.82
2022-10-28T05:59:12.384Z,3.80
2022-10-28T06:01:39.997Z,3.75
2022-10-28T06:04:07.290Z,3.77
2022-10-28T06:06:34.531Z,3.72
2022-10-28T06:09:01.823Z,3.71
2022-10-28T06:11:27.641Z,3.74
2022-10-28T06:13:56.428Z,3.81
2022-10-28T06:16:23.898Z,3.83
2022-10-28T06:18:51.512Z,3.88
2022-10-28T06:21:18.820Z,3.95
2022-10-28T06:23:46.932Z,3.98
2022-10-28T06:26:14.097Z,3.95
2022-10-28T06:28:42.300Z,4.00
2022-10-28T06:31:10.925Z,4.02
2022-10-28T06:33:38.290Z,4.04
2022-10-28T06:36:06.458Z,4.09
2022-10-28T06:38:33.698Z,4.08
2022-10-28T06:41:01.149Z,4.07
2022-10-28T06:43:28.542Z,4.04
2022-10-28T06:45:59.304Z,4.03
2022-10-28T06:48:29.955Z,4.02
2022-10-28T06:50:58.205Z,4.03
2022-10-28T06:53:25.533Z,4.06
2022-10-28T06:55:53.731Z,4.05
2022-10-28T06:58:21.360Z,4.06
2022-10-28T07:00:48.785Z,4.05
2022-10-28T07:03:16.706Z,4.07
2022-10-28T07:05:46.039Z,4.09
2022-10-28T07:08:14.569Z,4.09
2022-10-28T07:10:42.361Z,4.17
2022-10-28T07:13:09.528Z,4.21
2022-10-28T07:15:36.676Z,4.31
2022-10-28T07:18:04.116Z,4.27
2022-10-28T07:20:33.095Z,4.29
2022-10-28T07:23:02.911Z,4.37
2022-10-28T07:25:31.280Z,4.40
2022-10-28T07:27:58.857Z,4.49
2022-10-28T07:30:26.258Z,4.54
2022-10-28T07:32:54.392Z,4.59
2022-10-28T07:35:21.907Z,4.63
2022-10-28T07:37:49.464Z,4.65
2022-10-28T07:40:18.870Z,4.69
2022-10-28T07:42:46.166Z,4.73
2022-10-28T07:45:13.717Z,4.80
2022-10-28T07:47:41.311Z,4.85
2022-10-28T07:50:10.209Z,4.93
2022-10-28T07:52:38.205Z,4.99
2022-10-28T07:55:07.860Z,5.05
2022-10-28T07:57:36.957Z,5.07
2022-10-28T08:00:06.791Z,5.06
2022-10-28T08:02:40.313Z,5.16
2022-10-28T08:05:08.266Z,5.27
2022-10-28T08:07:38.459Z,5.38
2022-10-28T08:10:07.872Z,5.41
2022-10-28T08:12:36.620Z,5.52
2022-10-28T08:15:04.558Z,5.54
2022-10-28T08:17:32.215Z,5.60
2022-10-28T08:19:59.470Z,5.64
2022-10-28T08:22:26.873Z,5.70
2022-10-28T08:24:54.336Z,5.74
2022-10-28T08:27:21.850Z,5.72
2022-10-28T08:29:50.525Z,5.75
2022-10-28T08:32:17.897Z,5.73
2022-10-28T08:34:45.142Z,5.74
2022-10-28T08:37:12.495Z,5.75
2022-10-28T08:39:39.914Z,5.79
2022-10-28T08:42:24.410Z,5.87
2022-10-28T08:45:03.317Z,5.91
2022-10-28T08:47:43.033Z,5.97
2022-10-28T08:50:14.556Z,6.00
2022-10-28T08:52:46.623Z,6.00
2022-10-28T08:55:19.008Z,6.05
2022-10-28T08:57:51.088Z,6.01
2022-10-28T09:00:23.416Z,6.04
2022-10-28T09:03:03.970Z,6.10
2022-10-28T09:05:31.372Z,6.13
2022-10-28T09:07:59.255Z,6.15
2022-10-28T09:10:44.907Z,6.20
2022-10-28T09:13:17.893Z,6.24
2022-10-28T09:15:55.925Z,6.28
2022-10-28T09:18:37.268Z,6.24
2022-10-28T09:21:13.274Z,6.29
2022-10-28T09:23:46.621Z,6.32
2022-10-28T09:26:20.815Z,6.36
2022-10-28T09:29:00.530Z,6.39
2022-10-28T09:31:35.926Z,6.39
2022-10-28T09:34:17.796Z,6.47
2022-10-28T09:36:50.064Z,6.46
2022-10-28T09:39:37.942Z,6.52
2022-10-28T09:42:05.639Z,6.64
2022-10-28T09:44:41.509Z,6.65
2022-10-28T09:47:17.188Z,6.76
2022-10-28T09:49:47.781Z,6.92
2022-10-28T09:52:19.640Z,7.10
2022-10-28T09:54:50.721Z,7.24
2022-10-28T09:57:18.582Z,7.35
2022-10-28T09:59:46.344Z,7.38
2022-10-28T10:02:27.500Z,7.41
2022-10-28T10:04:56.048Z,7.44
2022-10-28T10:07:31.973Z,7.34
2022-10-28T10:10:01.439Z,7.28
2022-10-28T10:12:33.554Z,7.26
2022-10-28T10:15:02.495Z,7.24
2022-10-28T10:17:39.350Z,7.31
2022-10-28T10:20:08.304Z,7.25
2022-10-28T10:22:37.377Z,7.22
2022-10-28T10:25:30.010Z,7.20
2022-10-28T10:28:01.155Z,7.25
2022-10-28T10:30:33.235Z,7.31
2022-10-28T10:33:03.239Z,7.35
2022-10-28T10:35:32.377Z,7.34
2022-10-28T10:38:02.059Z,7.37
2022-10-28T10:40:33.750Z,7.46
2022-10-28T10:43:22.392Z,7.45
2022-10-28T10:45:52.939Z,7.48
2022-10-28T10:48:22.044Z,7.51
2022-10-28T10:50:50.879Z,7.60
2022-10-28T10:53:24.597Z,7.61
2022-10-28T10:55:55.257Z,7.62
2022-10-28T10:58:25.339Z,7.64
2022-10-28T11:00:55.113Z,7.67
2022-10-28T11:03:28.436Z,7.68
2022-10-28T11:08:45.613Z,7.78
2022-10-28T11:11:18.816Z,7.81
2022-10-28T11:13:47.239Z,7.86
2022-10-28T11:16:19.452Z,7.78
2022-10-28T11:18:49.837Z,7.80
2022-10-28T11:21:49.440Z,7.84
2022-10-28T11:24:43.613Z,7.86
2022-10-28T11:27:23.784Z,7.86
2022-10-28T11:29:51.442Z,7.87
2022-10-28T11:32:32.242Z,7.92
2022-10-28T11:35:47.208Z,7.98
2022-10-28T11:38:45.417Z,8.06
2022-10-28T11:41:23.212Z,8.02
2022-10-28T11:43:55.269Z,8.08
2022-10-28T11:46:42.763Z,8.07
2022-10-28T11:49:41.400Z,8.15
2022-10-28T11:52:23.014Z,8.13
2022-10-28T11:55:03.805Z,8.14
2022-10-28T11:57:40.869Z,8.13
2022-10-28T12:00:28.009Z,8.19
2022-10-28T12:03:12.853Z,8.20
2022-10-28T12:05:47.270Z,8.22
2022-10-28T12:08:32.957Z,8.14
2022-10-28T12:11:10.841Z,8.16
2022-10-28T12:13:48.005Z,8.12
2022-10-28T12:16:22.176Z,8.12
2022-10-28T12:18:54.883Z,8.09
2022-10-28T12:21:29.111Z,8.10
2022-10-28T12:23:58.590Z,8.10
2022-10-28T12:26:35.213Z,8.07
2022-10-28T12:29:05.445Z,8.13
2022-10-28T12:31:38.218Z,8.05
2022-10-28T12:34:11.773Z,7.99
2022-10-28T12:36:43.589Z,7.98
2022-10-28T12:39:18.703Z,7.92
2022-10-28T12:41:56.509Z,7.99
2022-10-28T12:44:26.327Z,7.92
2022-10-28T12:47:01.867Z,7.89
2022-10-28T12:49:39.919Z,7.92
2022-10-28T12:52:18.083Z,7.98
2022-10-28T12:54:55.684Z,7.90
2022-10-28T12:57:25.772Z,7.94
2022-10-28T12:59:59.027Z,7.93
2022-10-28T13:02:31.565Z,7.94
2022-10-28T13:04:59.304Z,7.96
2022-10-28T13:08:03.233Z,7.99
2022-10-28T13:10:40.508Z,7.98
2022-10-28T13:13:24.702Z,7.99
2022-10-28T13:16:03.537Z,8.00
2022-10-28T13:19:05.996Z,7.96
2022-10-28T13:21:54.256Z,7.99
2022-10-28T13:24:29.666Z,7.91
2022-10-28T13:26:57.660Z,7.91
2022-10-28T13:29:29.444Z,7.92
2022-10-28T13:31:57.122Z,7.91
2022-10-28T13:34:32.221Z,7.87
2022-10-28T13:37:03.540Z,7.94
2022-10-28T13:39:43.579Z,7.92
2022-10-28T13:42:32.655Z,7.96
2022-10-28T13:45:03.623Z,7.97
2022-10-28T13:47:33.341Z,7.87
2022-10-28T13:50:40.674Z,7.91
2022-10-28T13:53:52.138Z,7.99
2022-10-28T13:56:29.967Z,7.97
2022-10-28T13:59:00.006Z,7.93
2022-10-28T14:01:56.741Z,7.94
2022-10-28T14:04:37.996Z,7.92
2022-10-28T14:07:21.856Z,7.88
2022-10-28T14:09:53.690Z,7.89
2022-10-28T14:12:27.798Z,7.88
2022-10-28T14:15:05.063Z,7.81
2022-10-28T14:17:39.388Z,7.84
2022-10-28T14:20:24.855Z,7.84
2022-10-28T14:22:53.305Z,7.81
2022-10-28T14:25:59.907Z,7.84
2022-10-28T14:28:54.710Z,7.89
2022-10-28T14:31:40.930Z,7.93
2022-10-28T14:34:34.302Z,7.95
2022-10-28T14:37:19.035Z,7.96
2022-10-28T14:40:02.472Z,7.97
2022-10-28T14:42:45.997Z,7.92
2022-10-28T14:45:26.857Z,7.87
2022-10-28T14:48:17.765Z,7.67
2022-10-28T14:50:48.156Z,7.60
2022-10-28T14:53:20.579Z,7.51
2022-10-28T14:55:51.147Z,7.49
2022-10-28T14:58:21.819Z,7.42
2022-10-28T15:01:00.748Z,7.36
2022-10-28T15:03:27.886Z,7.37
2022-10-28T15:05:56.588Z,7.37
2022-10-28T15:08:24.792Z,7.34
2022-10-28T15:10:52.357Z,7.36
2022-10-28T15:13:20.399Z,7.36
2022-10-28T15:15:57.365Z,7.35
2022-10-28T15:18:26.781Z,7.34
2022-10-28T15:21:10.315Z,7.35
2022-10-28T15:23:37.806Z,7.34
2022-10-28T15:26:06.054Z,7.29
2022-10-28T15:28:33.614Z,7.25
2022-10-28T15:31:00.990Z,7.19
2022-10-28T15:33:30.971Z,7.18
2022-10-28T15:36:17.592Z,7.18
2022-10-28T15:38:46.572Z,7.19
2022-10-28T15:41:43.311Z,7.18
2022-10-28T15:44:32.625Z,7.21
2022-10-28T15:47:02.546Z,7.20
2022-10-28T15:49:36.138Z,7.22
2022-10-28T15:52:35.559Z,7.22
2022-10-28T15:55:26.776Z,7.18
2022-10-28T15:58:24.072Z,7.17
2022-10-28T16:00:52.743Z,7.17
2022-10-28T16:03:26.308Z,7.21
2022-10-28T16:05:55.728Z,7.21
2022-10-28T16:08:27.195Z,7.22
2022-10-28T16:11:00.680Z,7.23
2022-10-28T16:13:31.730Z,7.20
2022-10-28T16:16:03.402Z,7.20
2022-10-28T16:18:34.978Z,7.18
2022-10-28T16:21:04.968Z,7.18
2022-10-28T16:23:39.541Z,7.18
2022-10-28T16:26:09.403Z,7.19
2022-10-28T16:28:38.033Z,7.20
2022-10-28T16:31:05.982Z,7.19
2022-10-28T16:33:35.261Z,7.19
2022-10-28T16:36:03.262Z,7.21
2022-10-28T16:38:31.451Z,7.24
2022-10-28T16:41:01.172Z,7.23
2022-10-28T16:43:29.855Z,7.28
2022-10-28T16:45:58.779Z,7.26
2022-10-28T16:48:28.486Z,7.28
2022-10-28T16:50:59.260Z,7.31
2022-10-28T16:53:26.592Z,7.32
2022-10-28T16:55:59.279Z,7.28
2022-10-28T16:58:29.334Z,7.29
2022-10-28T17:00:56.952Z,7.33
2022-10-28T17:03:24.408Z,7.35
2022-10-28T17:05:51.918Z,7.31
2022-10-28T17:08:36.124Z,7.34
2022-10-28T17:11:06.582Z,7.36
2022-10-28T17:13:35.616Z,7.35
2022-10-28T17:16:02.850Z,7.34
2022-10-28T17:18:30.250Z,7.36
2022-10-28T17:21:01.302Z,7.35
2022-10-28T17:23:29.206Z,7.35
2022-10-28T17:25:57.196Z,7.35
2022-10-28T17:28:24.667Z,7.33
2022-10-28T17:30:53.985Z,7.41
2022-10-28T17:33:21.344Z,7.46
2022-10-28T17:35:49.081Z,7.45
2022-10-28T17:38:16.618Z,7.47
2022-10-28T17:40:44.130Z,7.47
2022-10-28T17:43:11.799Z,7.49
2022-10-28T17:45:39.385Z,7.53
2022-10-28T17:48:08.286Z,7.58
2022-10-28T17:50:35.748Z,7.53
2022-10-28T17:53:03.138Z,7.55
2022-10-28T17:55:30.468Z,7.53
2022-10-28T17:57:58.111Z,7.53
2022-10-28T18:00:25.945Z,7.49
2022-10-28T18:02:55.522Z,7.42
2022-10-28T18:05:24.467Z,7.40
2022-10-28T18:07:55.246Z,7.39
2022-10-28T18:10:22.750Z,7.48
2022-10-28T18:12:51.066Z,7.45
2022-10-28T18:15:18.294Z,7.49
2022-10-28T18:17:49.444Z,7.44
2022-10-28T18:20:16.901Z,7.41
2022-10-28T18:22:45.513Z,7.38
2022-10-28T18:25:12.849Z,7.41
2022-10-28T18:27:41.376Z,7.40
2022-10-28T18:30:09.801Z,7.42
2022-10-28T18:32:37.002Z,7.44
2022-10-28T18:35:04.818Z,7.45
2022-10-28T18:37:32.146Z,7.48
2022-10-28T18:40:00.866Z,7.53
2022-10-28T18:42:29.212Z,7.47
2022-10-28T18:44:58.761Z,7.43
2022-10-28T18:47:26.193Z,7.43
2022-10-28T18:49:54.523Z,7.41
2022-10-28T18:52:21.814Z,7.48
2022-10-28T18:54:49.225Z,7.47
2022-10-28T18:57:19.362Z,7.46
2022-10-28T19:00:16.763Z,7.45
2022-10-28T19:02:33.845Z,7.44
2022-10-28T19:05:01.192Z,7.44
2022-10-28T19:07:29.749Z,7.44
2022-10-28T19:09:56.986Z,7.46
2022-10-28T19:12:25.651Z,7.49
2022-10-28T19:14:52.982Z,7.48
2022-10-28T19:17:20.359Z,7.47
2022-10-28T19:19:49.269Z,7.49
2022-10-28T19:22:16.557Z,7.47
2022-10-28T19:24:43.972Z,7.50
2022-10-28T19:27:12.171Z,7.50
2022-10-28T19:29:40.915Z,7.50
2022-10-28T19:32:08.295Z,7.53
2022-10-28T19:34:35.529Z,7.54
2022-10-28T19:37:02.815Z,7.53
2022-10-28T19:39:30.153Z,7.59
2022-10-28T19:41:57.901Z,7.57
2022-10-28T19:44:25.162Z,7.57
2022-10-28T19:46:53.744Z,7.58
2022-10-28T19:49:23.832Z,7.62
2022-10-28T19:51:53.464Z,7.59
2022-10-28T19:54:20.825Z,7.65
2022-10-28T19:56:49.202Z,7.66
2022-10-28T19:59:16.978Z,7.65
2022-10-28T20:01:44.489Z,7.64
2022-10-28T20:04:13.220Z,7.66
2022-10-28T20:06:41.101Z,7.66
2022-10-28T20:09:08.649Z,7.65
2022-10-28T20:11:38.248Z,7.68
2022-10-28T20:14:09.052Z,7.67
2022-10-28T20:16:36.786Z,7.70
2022-10-28T20:19:04.324Z,7.70
2022-10-28T20:21:34.396Z,7.70
2022-10-28T20:24:04.409Z,7.69
2022-10-28T20:26:34.293Z,7.64
2022-10-28T20:29:03.143Z,7.76
2022-10-28T20:31:31.902Z,7.75
2022-10-28T20:34:01.655Z,7.74
2022-10-28T20:36:30.333Z,7.76
2022-10-28T20:39:01.269Z,7.70
2022-10-28T20:41:30.617Z,7.75
2022-10-28T20:43:58.432Z,7.77
2022-10-28T20:46:26.963Z,7.81
2022-10-28T20:48:54.425Z,7.80
2022-10-28T20:51:22.907Z,7.80
2022-10-28T20:53:50.951Z,7.79
2022-10-28T20:56:21.470Z,7.79
2022-10-28T20:58:48.654Z,7.80
2022-10-28T21:01:18.799Z,7.80
2022-10-28T21:03:46.825Z,7.79
2022-10-28T21:06:16.165Z,7.81
2022-10-28T21:08:43.645Z,7.84
2022-10-28T21:11:13.278Z,7.84
2022-10-28T21:13:42.722Z,7.81
2022-10-28T21:16:11.929Z,7.74
2022-10-28T21:18:39.787Z,7.80
2022-10-28T21:21:07.566Z,7.81
2022-10-28T21:23:34.856Z,7.81
2022-10-28T21:26:04.230Z,7.82
2022-10-28T21:28:33.034Z,7.80
2022-10-28T21:31:02.635Z,7.83
2022-10-28T21:33:30.160Z,7.87
2022-10-28T21:35:58.844Z,7.92
2022-10-28T21:38:28.278Z,7.91
2022-10-28T21:40:59.799Z,7.92
2022-10-28T21:43:28.889Z,7.89
2022-10-28T21:45:56.303Z,7.90
2022-10-28T21:48:26.510Z,7.93
2022-10-28T21:50:54.999Z,7.90
2022-10-28T21:53:22.865Z,7.93
2022-10-28T21:55:51.329Z,7.91
2022-10-28T21:58:19.322Z,7.92
2022-10-28T22:00:46.830Z,7.92
2022-10-28T22:03:14.466Z,7.94
2022-10-28T22:05:50.776Z,7.98
2022-10-28T22:08:18.107Z,7.97
2022-10-28T22:10:45.349Z,8.00
2022-10-28T22:13:12.736Z,8.01
2022-10-28T22:15:39.949Z,7.97
2022-10-28T22:18:07.212Z,8.02
2022-10-28T22:20:34.437Z,8.07
2022-10-28T22:23:03.131Z,8.03
2022-10-28T22:25:30.324Z,8.03
2022-10-28T22:27:57.512Z,8.05
2022-10-28T22:30:24.813Z,8.07
2022-10-28T22:32:52.321Z,8.08
2022-10-28T22:35:19.775Z,8.11
2022-10-28T22:37:47.219Z,8.10
2022-10-28T22:40:15.993Z,8.14
2022-10-28T22:42:43.266Z,8.14
2022-10-28T22:45:10.721Z,8.16
2022-10-28T22:47:37.979Z,8.17
2022-10-28T22:50:05.949Z,8.19
2022-10-28T22:52:33.260Z,8.21
2022-10-28T22:55:00.491Z,8.23
2022-10-28T22:57:29.258Z,8.25
2022-10-28T22:59:56.619Z,8.22
2022-10-28T23:02:24.140Z,8.24
2022-10-28T23:04:51.557Z,8.19
2022-10-28T23:07:18.819Z,8.22
2022-10-28T23:09:46.192Z,8.27
2022-10-28T23:12:13.808Z,8.25
2022-10-28T23:14:42.480Z,8.25
2022-10-28T23:17:09.729Z,8.23
2022-10-28T23:19:36.917Z,8.25
2022-10-28T23:22:04.373Z,8.26
2022-10-28T23:24:31.624Z,8.26
2022-10-28T23:26:59.096Z,8.29
2022-10-28T23:29:26.371Z,8.29
2022-10-28T23:31:55.134Z,8.27
2022-10-28T23:34:22.658Z,8.30
2022-10-28T23:36:54.125Z,8.25
2022-10-28T23:39:21.960Z,8.27
2022-10-28T23:41:49.563Z,8.28
2022-10-28T23:44:17.142Z,8.32
2022-10-28T23:46:44.513Z,8.32
2022-10-28T23:49:13.175Z,8.32
2022-10-28T23:51:40.453Z,8.34
2022-10-28T23:54:07.836Z,8.36
2022-10-28T23:56:35.116Z,8.34
2022-10-28T23:59:02.399Z,8.35
